sensor_id;sensor_type;location;lat;lon;timestamp;P1;durP1;ratioP1;P2;durP2;ratioP2
38435;SDS011;24220;48.168;14.024;2023-03-20T00:02:24;15.07;;;10.82;;
38435;SDS011;24220;48.168;14.024;2023-03-20T00:04:54;11.20;;;9.93;;
38435;SDS011;24220;48.168;14.024;2023-03-20T00:07:26;13.32;;;10.48;;
38435;SDS011;24220;48.168;14.024;2023-03-20T00:09:55;12.73;;;9.93;;
38435;SDS011;24220;48.168;14.024;2023-03-20T00:12:23;11.30;;;10.13;;
38435;SDS011;24220;48.168;14.024;2023-03-20T00:14:57;15.33;;;10.67;;
38435;SDS011;24220;48.168;14.024;2023-03-20T00:17:28;11.88;;;10.65;;
38435;SDS011;24220;48.168;14.024;2023-03-20T00:19:55;14.75;;;10.35;;
38435;SDS011;24220;48.168;14.024;2023-03-20T00:22:25;13.00;;;10.57;;
38435;SDS011;24220;48.168;14.024;2023-03-20T00:24:54;14.48;;;10.10;;
38435;SDS011;24220;48.168;14.024;2023-03-20T00:27:22;12.30;;;10.00;;
38435;SDS011;24220;48.168;14.024;2023-03-20T00:29:49;12.35;;;10.45;;
38435;SDS011;24220;48.168;14.024;2023-03-20T00:32:21;11.23;;;10.02;;
38435;SDS011;24220;48.168;14.024;2023-03-20T00:34:48;11.00;;;9.43;;
38435;SDS011;24220;48.168;14.024;2023-03-20T00:37:16;12.15;;;10.07;;
38435;SDS011;24220;48.168;14.024;2023-03-20T00:39:45;11.77;;;9.35;;
38435;SDS011;24220;48.168;14.024;2023-03-20T00:42:17;13.77;;;9.82;;
38435;SDS011;24220;48.168;14.024;2023-03-20T00:44:50;10.77;;;9.18;;
38435;SDS011;24220;48.168;14.024;2023-03-20T00:47:21;10.73;;;9.03;;
38435;SDS011;24220;48.168;14.024;2023-03-20T00:49:50;11.73;;;9.27;;
38435;SDS011;24220;48.168;14.024;2023-03-20T00:52:20;11.57;;;9.52;;
38435;SDS011;24220;48.168;14.024;2023-03-20T00:54:52;11.68;;;10.00;;
38435;SDS011;24220;48.168;14.024;2023-03-20T00:59:55;12.32;;;9.52;;
38435;SDS011;24220;48.168;14.024;2023-03-20T01:04:57;11.02;;;8.68;;
38435;SDS011;24220;48.168;14.024;2023-03-20T01:07:24;12.63;;;9.43;;
38435;SDS011;24220;48.168;14.024;2023-03-20T01:09:53;11.00;;;9.32;;
38435;SDS011;24220;48.168;14.024;2023-03-20T01:12:20;11.63;;;10.25;;
38435;SDS011;24220;48.168;14.024;2023-03-20T01:14:52;10.85;;;9.45;;
38435;SDS011;24220;48.168;14.024;2023-03-20T01:17:22;11.85;;;8.75;;
38435;SDS011;24220;48.168;14.024;2023-03-20T01:19:50;11.85;;;9.50;;
38435;SDS011;24220;48.168;14.024;2023-03-20T01:22:18;10.73;;;9.60;;
38435;SDS011;24220;48.168;14.024;2023-03-20T01:24:46;12.05;;;9.77;;
38435;SDS011;24220;48.168;14.024;2023-03-20T01:27:14;14.57;;;9.40;;
38435;SDS011;24220;48.168;14.024;2023-03-20T01:29:43;10.25;;;9.13;;
38435;SDS011;24220;48.168;14.024;2023-03-20T01:32:12;12.07;;;10.10;;
38435;SDS011;24220;48.168;14.024;2023-03-20T01:34:41;10.85;;;9.65;;
38435;SDS011;24220;48.168;14.024;2023-03-20T01:37:11;10.88;;;9.45;;
38435;SDS011;24220;48.168;14.024;2023-03-20T01:39:43;11.20;;;9.95;;
38435;SDS011;24220;48.168;14.024;2023-03-20T01:42:13;11.18;;;9.35;;
38435;SDS011;24220;48.168;14.024;2023-03-20T01:44:41;11.30;;;8.95;;
38435;SDS011;24220;48.168;14.024;2023-03-20T01:47:14;14.02;;;9.43;;
38435;SDS011;24220;48.168;14.024;2023-03-20T01:52:57;10.45;;;9.05;;
38435;SDS011;24220;48.168;14.024;2023-03-20T01:55:40;14.88;;;9.50;;
38435;SDS011;24220;48.168;14.024;2023-03-20T01:58:12;11.40;;;9.68;;
38435;SDS011;24220;48.168;14.024;2023-03-20T02:00:47;10.55;;;9.40;;
38435;SDS011;24220;48.168;14.024;2023-03-20T02:03:15;13.57;;;9.52;;
38435;SDS011;24220;48.168;14.024;2023-03-20T02:05:45;11.10;;;9.50;;
38435;SDS011;24220;48.168;14.024;2023-03-20T02:08:23;11.65;;;9.07;;
38435;SDS011;24220;48.168;14.024;2023-03-20T02:10:54;11.82;;;8.73;;
38435;SDS011;24220;48.168;14.024;2023-03-20T02:13:25;9.60;;;8.70;;
38435;SDS011;24220;48.168;14.024;2023-03-20T02:15:55;11.77;;;9.15;;
38435;SDS011;24220;48.168;14.024;2023-03-20T02:18:29;12.73;;;9.05;;
38435;SDS011;24220;48.168;14.024;2023-03-20T02:35:15;10.68;;;8.82;;
38435;SDS011;24220;48.168;14.024;2023-03-20T02:40:52;11.07;;;8.55;;
38435;SDS011;24220;48.168;14.024;2023-03-20T02:43:51;10.55;;;9.10;;
38435;SDS011;24220;48.168;14.024;2023-03-20T02:52:40;12.25;;;9.20;;
38435;SDS011;24220;48.168;14.024;2023-03-20T02:54:52;10.45;;;8.68;;
38435;SDS011;24220;48.168;14.024;2023-03-20T02:57:43;10.10;;;9.00;;
38435;SDS011;24220;48.168;14.024;2023-03-20T03:00:17;9.95;;;8.27;;
38435;SDS011;24220;48.168;14.024;2023-03-20T03:03:03;11.35;;;9.18;;
38435;SDS011;24220;48.168;14.024;2023-03-20T03:06:05;11.38;;;8.27;;
38435;SDS011;24220;48.168;14.024;2023-03-20T03:08:57;9.88;;;8.57;;
38435;SDS011;24220;48.168;14.024;2023-03-20T03:11:31;11.65;;;8.70;;
38435;SDS011;24220;48.168;14.024;2023-03-20T03:14:01;8.70;;;7.72;;
38435;SDS011;24220;48.168;14.024;2023-03-20T03:16:34;9.75;;;8.48;;
38435;SDS011;24220;48.168;14.024;2023-03-20T03:19:12;9.30;;;8.27;;
38435;SDS011;24220;48.168;14.024;2023-03-20T03:21:45;9.95;;;8.55;;
38435;SDS011;24220;48.168;14.024;2023-03-20T03:24:27;9.60;;;7.95;;
38435;SDS011;24220;48.168;14.024;2023-03-20T03:27:15;10.68;;;8.38;;
38435;SDS011;24220;48.168;14.024;2023-03-20T03:29:55;12.90;;;8.13;;
38435;SDS011;24220;48.168;14.024;2023-03-20T03:32:29;9.32;;;8.18;;
38435;SDS011;24220;48.168;14.024;2023-03-20T03:35:00;10.00;;;8.43;;
38435;SDS011;24220;48.168;14.024;2023-03-20T03:43:27;9.52;;;8.52;;
38435;SDS011;24220;48.168;14.024;2023-03-20T03:49:19;8.70;;;7.80;;
38435;SDS011;24220;48.168;14.024;2023-03-20T03:51:59;9.02;;;7.95;;
38435;SDS011;24220;48.168;14.024;2023-03-20T03:57:06;8.38;;;7.55;;
38435;SDS011;24220;48.168;14.024;2023-03-20T03:59:36;10.68;;;8.10;;
38435;SDS011;24220;48.168;14.024;2023-03-20T04:02:08;8.70;;;7.80;;
38435;SDS011;24220;48.168;14.024;2023-03-20T04:04:41;10.50;;;8.23;;
38435;SDS011;24220;48.168;14.024;2023-03-20T04:07:14;9.38;;;7.85;;
38435;SDS011;24220;48.168;14.024;2023-03-20T04:09:44;11.20;;;7.90;;
38435;SDS011;24220;48.168;14.024;2023-03-20T04:12:29;9.50;;;8.23;;
38435;SDS011;24220;48.168;14.024;2023-03-20T04:15:05;10.27;;;9.02;;
38435;SDS011;24220;48.168;14.024;2023-03-20T04:17:33;9.93;;;8.85;;
38435;SDS011;24220;48.168;14.024;2023-03-20T04:20:03;9.02;;;7.93;;
38435;SDS011;24220;48.168;14.024;2023-03-20T04:22:33;11.65;;;8.30;;
38435;SDS011;24220;48.168;14.024;2023-03-20T04:25:04;10.32;;;7.63;;
38435;SDS011;24220;48.168;14.024;2023-03-20T04:27:32;7.43;;;6.72;;
38435;SDS011;24220;48.168;14.024;2023-03-20T04:30:00;7.65;;;6.95;;
38435;SDS011;24220;48.168;14.024;2023-03-20T04:32:27;9.30;;;7.55;;
38435;SDS011;24220;48.168;14.024;2023-03-20T04:34:54;8.30;;;7.18;;
38435;SDS011;24220;48.168;14.024;2023-03-20T04:37:22;9.77;;;7.80;;
38435;SDS011;24220;48.168;14.024;2023-03-20T04:39:54;10.68;;;7.90;;
38435;SDS011;24220;48.168;14.024;2023-03-20T04:42:21;7.72;;;7.03;;
38435;SDS011;24220;48.168;14.024;2023-03-20T04:44:51;8.93;;;7.72;;
38435;SDS011;24220;48.168;14.024;2023-03-20T04:47:21;10.38;;;7.72;;
38435;SDS011;24220;48.168;14.024;2023-03-20T04:49:48;8.38;;;7.57;;
38435;SDS011;24220;48.168;14.024;2023-03-20T04:52:16;9.18;;;7.50;;
38435;SDS011;24220;48.168;14.024;2023-03-20T04:54:43;10.15;;;8.05;;
38435;SDS011;24220;48.168;14.024;2023-03-20T04:57:10;12.73;;;8.40;;
38435;SDS011;24220;48.168;14.024;2023-03-20T04:59:38;10.35;;;7.95;;
38435;SDS011;24220;48.168;14.024;2023-03-20T05:02:05;11.77;;;8.27;;
38435;SDS011;24220;48.168;14.024;2023-03-20T05:04:41;9.38;;;8.40;;
38435;SDS011;24220;48.168;14.024;2023-03-20T05:07:08;9.38;;;8.43;;
38435;SDS011;24220;48.168;14.024;2023-03-20T05:09:36;9.68;;;8.70;;
38435;SDS011;24220;48.168;14.024;2023-03-20T05:12:08;10.75;;;9.65;;
38435;SDS011;24220;48.168;14.024;2023-03-20T05:14:38;9.68;;;8.48;;
38435;SDS011;24220;48.168;14.024;2023-03-20T05:17:06;10.93;;;8.95;;
38435;SDS011;24220;48.168;14.024;2023-03-20T05:19:33;10.65;;;8.55;;
38435;SDS011;24220;48.168;14.024;2023-03-20T05:22:01;9.55;;;8.50;;
38435;SDS011;24220;48.168;14.024;2023-03-20T05:24:30;10.10;;;8.48;;
38435;SDS011;24220;48.168;14.024;2023-03-20T05:26:58;10.77;;;9.13;;
38435;SDS011;24220;48.168;14.024;2023-03-20T05:29:27;10.13;;;8.57;;
38435;SDS011;24220;48.168;14.024;2023-03-20T05:31:57;9.95;;;8.75;;
38435;SDS011;24220;48.168;14.024;2023-03-20T05:34:25;11.05;;;8.88;;
38435;SDS011;24220;48.168;14.024;2023-03-20T05:36:53;11.75;;;9.07;;
38435;SDS011;24220;48.168;14.024;2023-03-20T05:39:23;9.85;;;8.80;;
38435;SDS011;24220;48.168;14.024;2023-03-20T05:41:51;12.77;;;9.85;;
38435;SDS011;24220;48.168;14.024;2023-03-20T05:44:20;10.93;;;9.15;;
38435;SDS011;24220;48.168;14.024;2023-03-20T05:46:48;11.55;;;9.10;;
38435;SDS011;24220;48.168;14.024;2023-03-20T05:49:15;9.68;;;8.35;;
38435;SDS011;24220;48.168;14.024;2023-03-20T05:51:42;10.70;;;8.88;;
38435;SDS011;24220;48.168;14.024;2023-03-20T05:54:10;12.80;;;9.57;;
38435;SDS011;24220;48.168;14.024;2023-03-20T05:56:37;11.65;;;9.52;;
38435;SDS011;24220;48.168;14.024;2023-03-20T05:59:05;10.75;;;9.65;;
38435;SDS011;24220;48.168;14.024;2023-03-20T06:01:32;11.40;;;9.05;;
38435;SDS011;24220;48.168;14.024;2023-03-20T06:03:59;10.48;;;9.20;;
38435;SDS011;24220;48.168;14.024;2023-03-20T06:06:26;14.10;;;10.98;;
38435;SDS011;24220;48.168;14.024;2023-03-20T06:08:56;12.45;;;10.23;;
38435;SDS011;24220;48.168;14.024;2023-03-20T06:11:23;12.23;;;10.13;;
38435;SDS011;24220;48.168;14.024;2023-03-20T06:13:53;13.20;;;10.75;;
38435;SDS011;24220;48.168;14.024;2023-03-20T06:16:24;17.20;;;11.57;;
38435;SDS011;24220;48.168;14.024;2023-03-20T06:18:52;16.90;;;11.57;;
38435;SDS011;24220;48.168;14.024;2023-03-20T06:21:22;19.70;;;13.98;;
38435;SDS011;24220;48.168;14.024;2023-03-20T06:23:49;23.25;;;17.23;;
38435;SDS011;24220;48.168;14.024;2023-03-20T06:26:17;28.17;;;19.35;;
38435;SDS011;24220;48.168;14.024;2023-03-20T06:28:44;17.80;;;13.30;;
38435;SDS011;24220;48.168;14.024;2023-03-20T06:31:12;14.63;;;11.50;;
38435;SDS011;24220;48.168;14.024;2023-03-20T06:33:42;15.55;;;10.93;;
38435;SDS011;24220;48.168;14.024;2023-03-20T06:36:10;12.55;;;11.25;;
38435;SDS011;24220;48.168;14.024;2023-03-20T06:38:40;12.70;;;11.20;;
38435;SDS011;24220;48.168;14.024;2023-03-20T06:41:09;16.05;;;12.10;;
38435;SDS011;24220;48.168;14.024;2023-03-20T06:43:47;13.55;;;10.98;;
38435;SDS011;24220;48.168;14.024;2023-03-20T06:46:17;15.40;;;11.82;;
38435;SDS011;24220;48.168;14.024;2023-03-20T06:48:44;13.25;;;11.73;;
38435;SDS011;24220;48.168;14.024;2023-03-20T06:51:17;11.73;;;10.52;;
38435;SDS011;24220;48.168;14.024;2023-03-20T06:53:45;14.15;;;11.80;;
38435;SDS011;24220;48.168;14.024;2023-03-20T06:56:12;12.75;;;10.60;;
38435;SDS011;24220;48.168;14.024;2023-03-20T06:58:39;12.20;;;10.95;;
38435;SDS011;24220;48.168;14.024;2023-03-20T07:01:07;16.70;;;15.15;;
38435;SDS011;24220;48.168;14.024;2023-03-20T07:03:36;12.90;;;11.60;;
38435;SDS011;24220;48.168;14.024;2023-03-20T07:06:03;13.75;;;11.07;;
38435;SDS011;24220;48.168;14.024;2023-03-20T07:08:32;13.77;;;11.57;;
38435;SDS011;24220;48.168;14.024;2023-03-20T07:11:02;11.55;;;10.35;;
38435;SDS011;24220;48.168;14.024;2023-03-20T07:13:32;13.90;;;11.07;;
38435;SDS011;24220;48.168;14.024;2023-03-20T07:16:02;12.43;;;11.13;;
38435;SDS011;24220;48.168;14.024;2023-03-20T07:18:31;11.45;;;10.25;;
38435;SDS011;24220;48.168;14.024;2023-03-20T07:20:59;13.35;;;10.77;;
38435;SDS011;24220;48.168;14.024;2023-03-20T07:23:29;11.73;;;10.38;;
38435;SDS011;24220;48.168;14.024;2023-03-20T07:25:57;11.85;;;10.48;;
38435;SDS011;24220;48.168;14.024;2023-03-20T07:28:27;10.93;;;9.38;;
38435;SDS011;24220;48.168;14.024;2023-03-20T07:30:54;15.95;;;9.93;;
38435;SDS011;24220;48.168;14.024;2023-03-20T07:33:24;10.50;;;9.40;;
38435;SDS011;24220;48.168;14.024;2023-03-20T07:35:54;10.82;;;9.15;;
38435;SDS011;24220;48.168;14.024;2023-03-20T07:38:24;11.90;;;9.20;;
38435;SDS011;24220;48.168;14.024;2023-03-20T07:40:53;9.27;;;8.38;;
38435;SDS011;24220;48.168;14.024;2023-03-20T07:43:21;9.95;;;9.00;;
38435;SDS011;24220;48.168;14.024;2023-03-20T07:45:48;10.57;;;9.20;;
38435;SDS011;24220;48.168;14.024;2023-03-20T07:48:16;9.60;;;8.70;;
38435;SDS011;24220;48.168;14.024;2023-03-20T07:50:43;8.95;;;8.10;;
38435;SDS011;24220;48.168;14.024;2023-03-20T07:53:11;10.10;;;8.13;;
38435;SDS011;24220;48.168;14.024;2023-03-20T07:55:38;8.85;;;7.97;;
38435;SDS011;24220;48.168;14.024;2023-03-20T07:58:05;8.80;;;7.90;;
38435;SDS011;24220;48.168;14.024;2023-03-20T08:00:34;8.93;;;8.00;;
38435;SDS011;24220;48.168;14.024;2023-03-20T08:03:02;9.77;;;8.75;;
38435;SDS011;24220;48.168;14.024;2023-03-20T08:05:29;8.63;;;7.75;;
38435;SDS011;24220;48.168;14.024;2023-03-20T08:07:57;8.82;;;7.93;;
38435;SDS011;24220;48.168;14.024;2023-03-20T08:10:25;8.65;;;7.45;;
38435;SDS011;24220;48.168;14.024;2023-03-20T08:12:52;8.60;;;7.70;;
38435;SDS011;24220;48.168;14.024;2023-03-20T08:15:22;8.25;;;7.45;;
38435;SDS011;24220;48.168;14.024;2023-03-20T08:17:52;8.27;;;7.47;;
38435;SDS011;24220;48.168;14.024;2023-03-20T08:20:19;8.13;;;7.35;;
38435;SDS011;24220;48.168;14.024;2023-03-20T08:22:47;7.93;;;7.03;;
38435;SDS011;24220;48.168;14.024;2023-03-20T08:25:15;8.07;;;7.28;;
38435;SDS011;24220;48.168;14.024;2023-03-20T08:27:45;7.82;;;7.05;;
38435;SDS011;24220;48.168;14.024;2023-03-20T08:30:12;7.88;;;7.07;;
38435;SDS011;24220;48.168;14.024;2023-03-20T08:32:40;7.47;;;6.78;;
38435;SDS011;24220;48.168;14.024;2023-03-20T08:35:07;8.93;;;6.82;;
38435;SDS011;24220;48.168;14.024;2023-03-20T08:37:57;6.75;;;6.07;;
38435;SDS011;24220;48.168;14.024;2023-03-20T08:40:25;6.20;;;5.60;;
38435;SDS011;24220;48.168;14.024;2023-03-20T08:42:52;7.10;;;6.35;;
38435;SDS011;24220;48.168;14.024;2023-03-20T08:45:20;7.97;;;6.32;;
38435;SDS011;24220;48.168;14.024;2023-03-20T08:47:50;6.90;;;5.68;;
38435;SDS011;24220;48.168;14.024;2023-03-20T08:50:17;6.00;;;5.40;;
38435;SDS011;24220;48.168;14.024;2023-03-20T08:52:47;7.40;;;5.97;;
38435;SDS011;24220;48.168;14.024;2023-03-20T08:55:17;6.53;;;5.57;;
38435;SDS011;24220;48.168;14.024;2023-03-20T08:57:45;6.43;;;5.68;;
38435;SDS011;24220;48.168;14.024;2023-03-20T09:00:15;12.50;;;9.52;;
38435;SDS011;24220;48.168;14.024;2023-03-20T09:02:44;8.57;;;6.72;;
38435;SDS011;24220;48.168;14.024;2023-03-20T09:05:11;6.40;;;5.47;;
38435;SDS011;24220;48.168;14.024;2023-03-20T09:07:39;6.13;;;5.57;;
38435;SDS011;24220;48.168;14.024;2023-03-20T09:10:07;6.22;;;5.63;;
38435;SDS011;24220;48.168;14.024;2023-03-20T09:12:35;6.18;;;5.57;;
38435;SDS011;24220;48.168;14.024;2023-03-20T09:15:03;6.28;;;5.68;;
38435;SDS011;24220;48.168;14.024;2023-03-20T09:17:31;5.78;;;5.28;;
38435;SDS011;24220;48.168;14.024;2023-03-20T09:20:01;6.13;;;5.57;;
38435;SDS011;24220;48.168;14.024;2023-03-20T09:22:28;6.00;;;5.40;;
38435;SDS011;24220;48.168;14.024;2023-03-20T09:24:58;5.65;;;5.05;;
38435;SDS011;24220;48.168;14.024;2023-03-20T09:27:26;5.57;;;5.07;;
38435;SDS011;24220;48.168;14.024;2023-03-20T09:29:53;5.63;;;5.00;;
38435;SDS011;24220;48.168;14.024;2023-03-20T09:32:26;5.68;;;5.18;;
38435;SDS011;24220;48.168;14.024;2023-03-20T09:34:56;5.72;;;4.97;;
38435;SDS011;24220;48.168;14.024;2023-03-20T09:37:23;5.38;;;4.68;;
38435;SDS011;24220;48.168;14.024;2023-03-20T09:39:53;5.85;;;4.93;;
38435;SDS011;24220;48.168;14.024;2023-03-20T09:48:01;7.22;;;5.30;;
38435;SDS011;24220;48.168;14.024;2023-03-20T09:51:02;5.93;;;5.13;;
38435;SDS011;24220;48.168;14.024;2023-03-20T09:53:43;5.57;;;5.05;;
38435;SDS011;24220;48.168;14.024;2023-03-20T09:56:22;6.10;;;5.50;;
38435;SDS011;24220;48.168;14.024;2023-03-20T09:58:56;5.53;;;5.03;;
38435;SDS011;24220;48.168;14.024;2023-03-20T10:01:31;5.97;;;5.22;;
38435;SDS011;24220;48.168;14.024;2023-03-20T10:04:09;6.00;;;5.50;;
38435;SDS011;24220;48.168;14.024;2023-03-20T10:06:37;6.53;;;5.22;;
38435;SDS011;24220;48.168;14.024;2023-03-20T10:09:20;5.50;;;5.00;;
38435;SDS011;24220;48.168;14.024;2023-03-20T10:17:30;6.07;;;5.40;;
38435;SDS011;24220;48.168;14.024;2023-03-20T10:23:01;7.60;;;6.67;;
38435;SDS011;24220;48.168;14.024;2023-03-20T10:25:34;6.38;;;5.57;;
38435;SDS011;24220;48.168;14.024;2023-03-20T10:28:11;5.85;;;5.35;;
38435;SDS011;24220;48.168;14.024;2023-03-20T10:36:08;9.60;;;6.25;;
38435;SDS011;24220;48.168;14.024;2023-03-20T10:41:36;5.38;;;4.88;;
38435;SDS011;24220;48.168;14.024;2023-03-20T10:44:08;5.05;;;4.50;;
38435;SDS011;24220;48.168;14.024;2023-03-20T10:46:41;6.90;;;4.78;;
38435;SDS011;24220;48.168;14.024;2023-03-20T10:49:20;4.88;;;4.47;;
38435;SDS011;24220;48.168;14.024;2023-03-20T10:52:05;5.97;;;5.43;;
38435;SDS011;24220;48.168;14.024;2023-03-20T10:54:46;5.65;;;5.10;;
38435;SDS011;24220;48.168;14.024;2023-03-20T10:57:22;5.25;;;4.75;;
38435;SDS011;24220;48.168;14.024;2023-03-20T10:59:53;5.93;;;5.30;;
38435;SDS011;24220;48.168;14.024;2023-03-20T11:02:29;5.10;;;4.70;;
38435;SDS011;24220;48.168;14.024;2023-03-20T11:04:58;4.75;;;4.30;;
38435;SDS011;24220;48.168;14.024;2023-03-20T11:07:31;5.25;;;4.70;;
38435;SDS011;24220;48.168;14.024;2023-03-20T11:12:32;5.07;;;4.22;;
38435;SDS011;24220;48.168;14.024;2023-03-20T11:15:21;5.45;;;4.40;;
38435;SDS011;24220;48.168;14.024;2023-03-20T11:18:03;15.48;;;7.85;;
38435;SDS011;24220;48.168;14.024;2023-03-20T11:20:33;14.57;;;8.18;;
38435;SDS011;24220;48.168;14.024;2023-03-20T11:23:05;14.70;;;7.80;;
38435;SDS011;24220;48.168;14.024;2023-03-20T11:25:37;11.15;;;7.18;;
38435;SDS011;24220;48.168;14.024;2023-03-20T11:28:20;7.85;;;5.28;;
38435;SDS011;24220;48.168;14.024;2023-03-20T11:31:23;4.50;;;3.83;;
38435;SDS011;24220;48.168;14.024;2023-03-20T11:34:44;4.82;;;4.32;;
38435;SDS011;24220;48.168;14.024;2023-03-20T11:36:53;5.30;;;4.20;;
38435;SDS011;24220;48.168;14.024;2023-03-20T11:39:38;5.47;;;3.90;;
38435;SDS011;24220;48.168;14.024;2023-03-20T11:42:23;4.35;;;3.88;;
38435;SDS011;24220;48.168;14.024;2023-03-20T11:44:56;4.40;;;4.00;;
38435;SDS011;24220;48.168;14.024;2023-03-20T11:47:26;4.07;;;3.70;;
38435;SDS011;24220;48.168;14.024;2023-03-20T11:50:04;3.90;;;3.50;;
38435;SDS011;24220;48.168;14.024;2023-03-20T11:52:36;4.53;;;3.72;;
38435;SDS011;24220;48.168;14.024;2023-03-20T11:55:21;4.03;;;3.63;;
38435;SDS011;24220;48.168;14.024;2023-03-20T11:58:03;3.58;;;3.28;;
38435;SDS011;24220;48.168;14.024;2023-03-20T12:00:36;3.58;;;3.28;;
38435;SDS011;24220;48.168;14.024;2023-03-20T12:06:35;3.83;;;3.30;;
38435;SDS011;24220;48.168;14.024;2023-03-20T12:12:07;4.15;;;3.55;;
38435;SDS011;24220;48.168;14.024;2023-03-20T12:14:49;5.03;;;3.67;;
38435;SDS011;24220;48.168;14.024;2023-03-20T12:20:06;3.40;;;3.10;;
38435;SDS011;24220;48.168;14.024;2023-03-20T12:22:47;6.70;;;4.53;;
38435;SDS011;24220;48.168;14.024;2023-03-20T12:34:02;4.75;;;4.13;;
38435;SDS011;24220;48.168;14.024;2023-03-20T12:36:33;4.75;;;4.10;;
38435;SDS011;24220;48.168;14.024;2023-03-20T12:39:13;4.65;;;4.25;;
38435;SDS011;24220;48.168;14.024;2023-03-20T12:44:46;4.57;;;4.03;;
38435;SDS011;24220;48.168;14.024;2023-03-20T12:58:56;4.00;;;3.60;;
38435;SDS011;24220;48.168;14.024;2023-03-20T13:01:30;4.72;;;4.03;;
38435;SDS011;24220;48.168;14.024;2023-03-20T13:06:59;4.35;;;3.95;;
38435;SDS011;24220;48.168;14.024;2023-03-20T13:20:23;5.45;;;4.43;;
38435;SDS011;24220;48.168;14.024;2023-03-20T13:29:10;4.72;;;4.03;;
38435;SDS011;24220;48.168;14.024;2023-03-20T13:42:41;4.68;;;4.28;;
38435;SDS011;24220;48.168;14.024;2023-03-20T13:47:51;5.68;;;5.07;;
38435;SDS011;24220;48.168;14.024;2023-03-20T13:53:16;5.53;;;4.75;;
38435;SDS011;24220;48.168;14.024;2023-03-20T13:56:04;6.18;;;5.10;;
38435;SDS011;24220;48.168;14.024;2023-03-20T14:03:52;5.32;;;4.80;;
38435;SDS011;24220;48.168;14.024;2023-03-20T14:08:57;5.95;;;4.68;;
38435;SDS011;24220;48.168;14.024;2023-03-20T14:11:29;5.70;;;4.70;;
38435;SDS011;24220;48.168;14.024;2023-03-20T14:14:16;5.93;;;5.03;;
38435;SDS011;24220;48.168;14.024;2023-03-20T14:17:00;4.70;;;4.25;;
38435;SDS011;24220;48.168;14.024;2023-03-20T14:19:35;5.05;;;4.55;;
38435;SDS011;24220;48.168;14.024;2023-03-20T14:22:06;6.68;;;4.85;;
38435;SDS011;24220;48.168;14.024;2023-03-20T14:24:44;5.93;;;5.03;;
38435;SDS011;24220;48.168;14.024;2023-03-20T14:27:17;5.45;;;4.95;;
38435;SDS011;24220;48.168;14.024;2023-03-20T14:32:59;6.63;;;5.03;;
38435;SDS011;24220;48.168;14.024;2023-03-20T14:41:33;5.60;;;5.00;;
38435;SDS011;24220;48.168;14.024;2023-03-20T14:44:14;5.60;;;5.10;;
38435;SDS011;24220;48.168;14.024;2023-03-20T14:52:17;4.57;;;4.18;;
38435;SDS011;24220;48.168;14.024;2023-03-20T14:54:57;5.07;;;4.50;;
38435;SDS011;24220;48.168;14.024;2023-03-20T14:57:56;4.07;;;3.67;;
38435;SDS011;24220;48.168;14.024;2023-03-20T15:00:32;4.93;;;4.00;;
38435;SDS011;24220;48.168;14.024;2023-03-20T15:03:05;4.50;;;4.10;;
38435;SDS011;24220;48.168;14.024;2023-03-20T15:05:34;4.20;;;3.28;;
38435;SDS011;24220;48.168;14.024;2023-03-20T15:08:07;3.70;;;3.40;;
38435;SDS011;24220;48.168;14.024;2023-03-20T15:10:43;3.53;;;3.22;;
38435;SDS011;24220;48.168;14.024;2023-03-20T15:13:17;6.18;;;3.47;;
38435;SDS011;24220;48.168;14.024;2023-03-20T15:15:56;5.38;;;3.47;;
38435;SDS011;24220;48.168;14.024;2023-03-20T15:18:25;3.60;;;3.30;;
38435;SDS011;24220;48.168;14.024;2023-03-20T15:20:58;5.00;;;4.17;;
38435;SDS011;24220;48.168;14.024;2023-03-20T15:23:25;4.53;;;3.70;;
38435;SDS011;24220;48.168;14.024;2023-03-20T15:25:55;6.60;;;3.40;;
38435;SDS011;24220;48.168;14.024;2023-03-20T15:28:25;3.47;;;2.78;;
38435;SDS011;24220;48.168;14.024;2023-03-20T15:30:57;3.03;;;2.75;;
38435;SDS011;24220;48.168;14.024;2023-03-20T15:36:07;2.75;;;2.35;;
38435;SDS011;24220;48.168;14.024;2023-03-20T15:38:37;2.92;;;2.25;;
38435;SDS011;24220;48.168;14.024;2023-03-20T15:41:07;2.67;;;2.47;;
38435;SDS011;24220;48.168;14.024;2023-03-20T15:43:49;3.30;;;2.35;;
38435;SDS011;24220;48.168;14.024;2023-03-20T15:46:17;5.82;;;3.10;;
38435;SDS011;24220;48.168;14.024;2023-03-20T15:48:48;2.45;;;2.25;;
38435;SDS011;24220;48.168;14.024;2023-03-20T15:51:16;2.55;;;1.90;;
38435;SDS011;24220;48.168;14.024;2023-03-20T15:53:46;3.10;;;2.25;;
38435;SDS011;24220;48.168;14.024;2023-03-20T15:56:16;2.67;;;2.30;;
38435;SDS011;24220;48.168;14.024;2023-03-20T15:58:46;2.00;;;1.80;;
38435;SDS011;24220;48.168;14.024;2023-03-20T16:01:21;2.60;;;2.15;;
38435;SDS011;24220;48.168;14.024;2023-03-20T16:03:57;2.40;;;2.20;;
38435;SDS011;24220;48.168;14.024;2023-03-20T16:06:34;2.75;;;2.55;;
38435;SDS011;24220;48.168;14.024;2023-03-20T16:09:04;3.58;;;2.33;;
38435;SDS011;24220;48.168;14.024;2023-03-20T16:11:37;2.65;;;2.45;;
38435;SDS011;24220;48.168;14.024;2023-03-20T16:14:12;2.70;;;2.50;;
38435;SDS011;24220;48.168;14.024;2023-03-20T16:16:52;2.78;;;2.50;;
38435;SDS011;24220;48.168;14.024;2023-03-20T16:19:24;2.90;;;2.10;;
38435;SDS011;24220;48.168;14.024;2023-03-20T16:21:55;2.63;;;2.33;;
38435;SDS011;24220;48.168;14.024;2023-03-20T16:24:35;3.85;;;3.45;;
38435;SDS011;24220;48.168;14.024;2023-03-20T16:27:27;5.82;;;4.10;;
38435;SDS011;24220;48.168;14.024;2023-03-20T16:30:12;4.78;;;4.03;;
38435;SDS011;24220;48.168;14.024;2023-03-20T16:33:07;3.92;;;3.00;;
38435;SDS011;24220;48.168;14.024;2023-03-20T16:35:50;4.30;;;3.17;;
38435;SDS011;24220;48.168;14.024;2023-03-20T16:38:28;3.85;;;3.55;;
38435;SDS011;24220;48.168;14.024;2023-03-20T16:41:20;3.10;;;2.80;;
38435;SDS011;24220;48.168;14.024;2023-03-20T16:43:55;3.03;;;2.50;;
38435;SDS011;24220;48.168;14.024;2023-03-20T16:46:29;2.67;;;2.47;;
38435;SDS011;24220;48.168;14.024;2023-03-20T16:52:02;4.03;;;3.05;;
38435;SDS011;24220;48.168;14.024;2023-03-20T16:54:37;3.20;;;2.90;;
38435;SDS011;24220;48.168;14.024;2023-03-20T16:57:16;3.08;;;2.78;;
38435;SDS011;24220;48.168;14.024;2023-03-20T16:59:45;3.25;;;2.90;;
38435;SDS011;24220;48.168;14.024;2023-03-20T17:02:22;3.95;;;3.15;;
38435;SDS011;24220;48.168;14.024;2023-03-20T17:05:03;2.95;;;2.65;;
38435;SDS011;24220;48.168;14.024;2023-03-20T17:07:47;2.80;;;2.50;;
38435;SDS011;24220;48.168;14.024;2023-03-20T17:10:24;2.20;;;2.00;;
38435;SDS011;24220;48.168;14.024;2023-03-20T17:12:55;2.67;;;2.03;;
38435;SDS011;24220;48.168;14.024;2023-03-20T17:15:29;3.00;;;2.20;;
38435;SDS011;24220;48.168;14.024;2023-03-20T17:17:59;2.60;;;2.40;;
38435;SDS011;24220;48.168;14.024;2023-03-20T17:20:38;2.88;;;2.65;;
38435;SDS011;24220;48.168;14.024;2023-03-20T17:23:13;3.67;;;2.60;;
38435;SDS011;24220;48.168;14.024;2023-03-20T17:25:44;3.35;;;2.40;;
38435;SDS011;24220;48.168;14.024;2023-03-20T17:28:23;2.65;;;2.45;;
38435;SDS011;24220;48.168;14.024;2023-03-20T17:30:59;3.15;;;2.85;;
38435;SDS011;24220;48.168;14.024;2023-03-20T17:33:35;3.10;;;2.80;;
38435;SDS011;24220;48.168;14.024;2023-03-20T17:36:04;3.10;;;2.80;;
38435;SDS011;24220;48.168;14.024;2023-03-20T17:38:39;3.38;;;2.80;;
38435;SDS011;24220;48.168;14.024;2023-03-20T17:41:09;3.28;;;2.95;;
38435;SDS011;24220;48.168;14.024;2023-03-20T17:43:40;3.35;;;2.70;;
38435;SDS011;24220;48.168;14.024;2023-03-20T17:46:29;4.50;;;2.90;;